Time;durP1;ratioP1;P1;durP2;ratioP2;P2;SDS_P1;SDS_P2;PMS_P1;PMS_P2;Temp;Humidity;BMP_temperature;BMP_pressure;BME280_temperature;BME280_humidity;BME280_pressure;Samples;Min_cycle;Max_cycle;Signal;HPM_P1;HPM_P2
2023/02/14 00:02:18;;;;;;;;;;;;;;;22.58;17.60;99207.50;5076980;28;1976;-78
2023/02/14 00:04:45;;;;;;;;;;;;;;;23.13;16.90;99206.44;5076696;28;902;-78
2023/02/14 00:07:11;;;;;;;;;;;;;;;22.66;17.42;99202.56;5076847;28;1218;-79
2023/02/14 00:09:36;;;;;;;;;;;;;;;22.58;17.34;99199.00;5076594;28;1067;-78
2023/02/14 00:12:02;;;;;;;;;;;;;;;22.82;16.97;99197.91;5076983;28;916;-79
2023/02/14 00:17:12;;;;;;;;;;;;;;;22.76;17.11;99182.56;5076576;28;879;-79
2023/02/14 00:19:37;;;;;;;;;;;;;;;22.99;16.83;99189.59;5076854;28;973;-78
2023/02/14 00:22:03;;;;;;;;;;;;;;;22.91;17.00;99188.91;5076513;28;1906;-78
2023/02/14 00:24:28;;;;;;;;;;;;;;;22.92;17.27;99181.19;5076493;28;866;-78
2023/02/14 00:26:53;;;;;;;;;;;;;;;22.85;17.22;99174.34;5076804;28;894;-78
2023/02/14 00:29:20;;;;;;;;;;;;;;;23.10;16.86;99173.22;5075335;28;1162;-78
2023/02/14 00:31:46;;;;;;;;;;;;;;;22.66;17.52;99177.84;5109412;28;940;-78
2023/02/14 00:34:11;;;;;;;;;;;;;;;22.41;17.60;99165.97;5076033;28;940;-78
2023/02/14 00:36:36;;;;;;;;;;;;;;;22.64;17.37;99163.28;5076402;28;913;-78
2023/02/14 00:39:02;;;;;;;;;;;;;;;22.56;17.46;99167.44;5076335;28;997;-78
2023/02/14 00:41:28;;;;;;;;;;;;;;;22.07;17.78;99158.19;5075258;28;1291;-78
2023/02/14 00:43:53;;;;;;;;;;;;;;;22.22;18.04;99156.84;5075886;28;1910;-77
2023/02/14 00:46:19;;;;;;;;;;;;;;;22.35;17.63;99143.75;5075167;28;991;-78
2023/02/14 00:48:45;;;;;;;;;;;;;;;22.62;17.36;99140.19;5108367;28;881;-78
2023/02/14 00:51:10;;;;;;;;;;;;;;;22.71;17.18;99131.97;5076252;28;1035;-77
2023/02/14 00:53:36;;;;;;;;;;;;;;;23.24;16.75;99130.44;5075714;28;1050;-78
2023/02/14 00:56:02;;;;;;;;;;;;;;;23.43;16.65;99117.56;5076392;28;914;-78
2023/02/14 00:58:27;;;;;;;;;;;;;;;23.05;16.90;99119.75;5074930;28;1218;-78
2023/02/14 01:00:53;;;;;;;;;;;;;;;22.66;17.46;99121.09;5075719;28;1189;-79
2023/02/14 01:03:19;;;;;;;;;;;;;;;23.09;16.68;99112.81;5076306;28;1917;-78
2023/02/14 01:05:44;;;;;;;;;;;;;;;22.77;17.13;99106.75;5074736;28;1489;-78
2023/02/14 01:08:10;;;;;;;;;;;;;;;23.04;16.84;99109.66;5108597;28;1566;-78
2023/02/14 01:10:36;;;;;;;;;;;;;;;22.85;17.20;99099.78;5075447;28;921;-78
2023/02/14 01:13:01;;;;;;;;;;;;;;;22.96;16.86;99102.47;5076014;28;940;-78
2023/02/14 01:15:27;;;;;;;;;;;;;;;22.53;17.51;99095.31;5075472;28;1050;-78
2023/02/14 01:17:53;;;;;;;;;;;;;;;22.17;17.75;99088.47;5091694;28;1130;-78
2023/02/14 01:20:19;;;;;;;;;;;;;;;22.60;17.63;99083.09;5074652;28;1328;-78
2023/02/14 01:22:45;;;;;;;;;;;;;;;22.97;16.83;99075.69;5076031;28;1910;-78
2023/02/14 01:25:11;;;;;;;;;;;;;;;22.98;17.21;99080.13;5075837;28;929;-78
2023/02/14 01:27:37;;;;;;;;;;;;;;;23.14;16.82;99074.63;5075704;28;892;-78
2023/02/14 01:30:02;;;;;;;;;;;;;;;22.76;17.23;99077.59;5091439;28;1121;-78
2023/02/14 01:32:31;;;;;;;;;;;;;;;23.07;16.83;99071.91;5076011;28;952;-78
2023/02/14 01:34:56;;;;;;;;;;;;;;;23.50;16.47;99071.19;5074360;28;1328;-78
2023/02/14 01:37:22;;;;;;;;;;;;;;;22.84;17.16;99069.75;5108263;28;899;-78
2023/02/14 01:39:47;;;;;;;;;;;;;;;23.12;16.86;99080.72;5108202;28;925;-78
2023/02/14 01:42:13;;;;;;;;;;;;;;;22.91;16.93;99080.25;5074426;28;1910;-78
2023/02/14 01:44:38;;;;;;;;;;;;;;;22.90;17.05;99078.63;5074526;28;1108;-78
2023/02/14 01:47:05;;;;;;;;;;;;;;;23.30;16.53;99076.78;5074421;28;1366;-78
2023/02/14 01:49:33;;;;;;;;;;;;;;;23.08;16.89;99079.16;5108593;28;1153;-78
2023/02/14 01:52:00;;;;;;;;;;;;;;;23.39;16.62;99077.84;5108345;28;932;-78
2023/02/14 01:54:26;;;;;;;;;;;;;;;22.55;17.61;99077.88;5074182;28;1261;-78
2023/02/14 01:56:53;;;;;;;;;;;;;;;23.16;16.68;99075.00;5089442;28;935;-78
2023/02/14 01:59:19;;;;;;;;;;;;;;;22.75;17.25;99066.69;5035963;28;1077;-78
2023/02/14 02:01:44;;;;;;;;;;;;;;;22.80;17.39;99074.72;5052777;28;1985;-78
2023/02/14 02:04:11;;;;;;;;;;;;;;;22.83;17.27;99071.81;5053014;28;1009;-78
2023/02/14 02:06:38;;;;;;;;;;;;;;;23.36;16.78;99058.03;5052721;28;1040;-78
2023/02/14 02:09:09;;;;;;;;;;;;;;;23.42;16.56;99047.78;5052557;28;1010;-78
2023/02/14 02:11:36;;;;;;;;;;;;;;;23.08;16.96;99045.09;5036284;28;1246;-78
2023/02/14 02:14:02;;;;;;;;;;;;;;;22.99;17.06;99036.31;5052943;28;895;-78
2023/02/14 02:16:30;;;;;;;;;;;;;;;22.93;17.06;99032.38;5052527;28;981;-79
2023/02/14 02:19:19;;;;;;;;;;;;;;;23.06;17.29;99036.22;5053264;28;959;-78
2023/02/14 02:21:44;;;;;;;;;;;;;;;22.46;17.50;99027.34;4977755;28;1984;-78
2023/02/14 02:24:20;;;;;;;;;;;;;;;23.25;16.80;99026.97;4980589;28;1211;-78
2023/02/14 02:26:46;;;;;;;;;;;;;;;23.21;17.00;99017.72;4981779;28;1008;-78
2023/02/14 02:29:31;;;;;;;;;;;;;;;22.95;17.14;99008.03;5016618;28;916;-78
2023/02/14 02:32:03;;;;;;;;;;;;;;;23.13;17.04;99013.41;4960980;28;1133;-78
2023/02/14 02:34:54;;;;;;;;;;;;;;;22.90;17.13;99004.84;4977418;28;1100;-78
2023/02/14 02:37:29;;;;;;;;;;;;;;;23.16;16.83;98995.50;4910799;29;1140;-79
2023/02/14 02:40:12;;;;;;;;;;;;;;;22.95;16.99;98995.84;4900786;29;1042;-78
2023/02/14 02:42:56;;;;;;;;;;;;;;;22.92;17.21;98993.88;4916601;29;1914;-78
2023/02/14 02:45:28;;;;;;;;;;;;;;;22.77;17.28;98990.44;4900956;29;1021;-78
2023/02/14 02:47:56;;;;;;;;;;;;;;;22.44;17.48;98990.13;4916379;29;1097;-78
2023/02/14 02:53:23;;;;;;;;;;;;;;;22.73;17.46;98990.47;4900541;29;1268;-78
2023/02/14 02:58:47;;;;;;;;;;;;;;;22.44;17.38;98995.78;4912613;29;1266;-78
2023/02/14 03:01:15;;;;;;;;;;;;;;;22.69;17.58;98995.44;4907026;29;1124;-78
2023/02/14 03:06:25;;;;;;;;;;;;;;;23.00;17.03;98978.31;4924700;29;1237;-79
2023/02/14 03:08:51;;;;;;;;;;;;;;;23.04;16.98;98970.56;4945731;28;1080;-78
2023/02/14 03:11:16;;;;;;;;;;;;;;;22.74;17.35;98966.56;4979897;28;993;-78
2023/02/14 03:13:42;;;;;;;;;;;;;;;22.61;17.34;98968.38;5008468;28;936;-79
2023/02/14 03:16:08;;;;;;;;;;;;;;;22.62;17.56;98967.16;5060449;28;1777;-78
2023/02/14 03:18:55;;;;;;;;;;;;;;;22.84;17.01;98959.09;5078030;28;889;-78
2023/02/14 03:21:27;;;;;;;;;;;;;;;23.08;16.85;98951.44;5093556;28;1172;-78
2023/02/14 03:23:55;;;;;;;;;;;;;;;22.70;17.49;98951.63;5077397;28;1979;-78
2023/02/14 03:26:26;;;;;;;;;;;;;;;22.58;17.41;98960.72;5093494;28;1133;-78
2023/02/14 03:28:59;;;;;;;;;;;;;;;22.72;17.35;98949.16;5076375;28;1432;-78
2023/02/14 03:31:31;;;;;;;;;;;;;;;22.88;17.18;98946.47;5077522;28;910;-77
2023/02/14 03:34:27;;;;;;;;;;;;;;;23.00;16.93;98936.56;5076046;28;1290;-78
2023/02/14 03:37:12;;;;;;;;;;;;;;;23.03;16.90;98932.84;5095121;28;1076;-78
2023/02/14 03:39:42;;;;;;;;;;;;;;;23.20;16.69;98933.75;5078092;28;1087;-78
2023/02/14 03:42:12;;;;;;;;;;;;;;;23.21;16.82;98932.53;5061878;28;1909;-78
2023/02/14 03:44:37;;;;;;;;;;;;;;;23.18;16.62;98930.56;5017838;28;1194;-78
2023/02/14 03:47:04;;;;;;;;;;;;;;;23.21;16.59;98924.03;5001633;28;1234;-78
2023/02/14 03:49:30;;;;;;;;;;;;;;;22.74;17.51;98918.34;5001815;28;994;-78
2023/02/14 03:51:56;;;;;;;;;;;;;;;22.98;16.92;98922.00;5018304;28;941;-78
2023/02/14 03:54:21;;;;;;;;;;;;;;;22.88;17.06;98912.44;5018350;28;914;-78
2023/02/14 03:56:48;;;;;;;;;;;;;;;22.92;17.27;98922.94;5001524;28;999;-78
2023/02/14 03:59:17;;;;;;;;;;;;;;;22.50;17.46;98916.69;5017942;28;1055;-78
2023/02/14 04:01:46;;;;;;;;;;;;;;;22.49;17.32;98923.63;5018337;28;904;-78
2023/02/14 04:04:13;;;;;;;;;;;;;;;22.56;17.48;98923.50;5001879;28;1981;-78
2023/02/14 04:06:39;;;;;;;;;;;;;;;22.66;17.45;98931.03;5017916;28;1221;-78
2023/02/14 04:09:04;;;;;;;;;;;;;;;22.43;17.47;98936.66;5017652;28;1077;-78
2023/02/14 04:11:33;;;;;;;;;;;;;;;22.61;17.26;98937.19;5034624;28;995;-78
2023/02/14 04:13:59;;;;;;;;;;;;;;;22.28;17.86;98939.72;5034082;28;922;-78
2023/02/14 04:16:25;;;;;;;;;;;;;;;22.34;17.58;98949.34;5065142;28;967;-78
2023/02/14 04:21:34;;;;;;;;;;;;;;;22.24;17.90;98933.28;5076773;28;864;-78
2023/02/14 04:23:59;;;;;;;;;;;;;;;22.04;18.18;98938.00;5076480;28;1988;-78
2023/02/14 04:26:25;;;;;;;;;;;;;;;22.16;18.13;98950.81;5076775;28;1067;-78
2023/02/14 04:28:50;;;;;;;;;;;;;;;22.61;17.58;98951.38;5076444;28;938;-78
2023/02/14 04:31:16;;;;;;;;;;;;;;;22.90;16.93;98951.75;5076408;28;941;-78
2023/02/14 04:33:43;;;;;;;;;;;;;;;22.47;17.37;98949.53;5076171;28;910;-78
2023/02/14 04:36:08;;;;;;;;;;;;;;;22.15;17.90;98944.34;5076260;28;916;-78
2023/02/14 04:38:34;;;;;;;;;;;;;;;22.25;17.60;98936.91;5076083;28;904;-78
2023/02/14 04:40:59;;;;;;;;;;;;;;;22.63;17.18;98941.19;5062959;28;1640;-77
2023/02/14 04:43:24;;;;;;;;;;;;;;;22.75;17.22;98934.13;5058103;28;1973;-78
2023/02/14 04:45:50;;;;;;;;;;;;;;;22.65;17.17;98937.94;5066931;28;1668;-78
2023/02/14 04:48:15;;;;;;;;;;;;;;;22.84;17.09;98936.41;5075853;28;1044;-79
2023/02/14 04:50:41;;;;;;;;;;;;;;;22.70;16.96;98934.63;5076027;28;908;-78
2023/02/14 04:53:06;;;;;;;;;;;;;;;22.41;17.54;98939.91;5076156;28;925;-78
2023/02/14 04:55:32;;;;;;;;;;;;;;;21.83;18.30;98939.06;5076692;28;867;-79
2023/02/14 04:57:57;;;;;;;;;;;;;;;21.82;18.26;98938.28;5075963;28;979;-78
2023/02/14 05:00:23;;;;;;;;;;;;;;;22.29;17.46;98941.31;5074655;28;1479;-79
2023/02/14 05:02:48;;;;;;;;;;;;;;;22.58;17.11;98943.72;5072512;28;1910;-78
2023/02/14 05:05:14;;;;;;;;;;;;;;;22.76;17.02;98934.94;5074713;28;1568;-79
2023/02/14 05:07:41;;;;;;;;;;;;;;;22.95;16.80;98936.25;5076134;28;1204;-79
2023/02/14 05:10:06;;;;;;;;;;;;;;;22.60;17.07;98933.56;5075869;28;940;-79
2023/02/14 05:12:32;;;;;;;;;;;;;;;22.16;17.49;98950.81;5075662;28;1098;-79
2023/02/14 05:14:57;;;;;;;;;;;;;;;21.87;18.19;98951.19;5076491;28;877;-79
2023/02/14 05:17:23;;;;;;;;;;;;;;;22.22;17.71;98961.25;5075853;28;913;-78
2023/02/14 05:19:48;;;;;;;;;;;;;;;22.79;17.00;98966.06;5059810;28;1451;-78
2023/02/14 05:22:13;;;;;;;;;;;;;;;22.92;16.79;98968.34;5055974;28;1976;-78
2023/02/14 05:24:39;;;;;;;;;;;;;;;22.71;16.95;98958.09;5055623;28;899;-78
2023/02/14 05:27:04;;;;;;;;;;;;;;;22.92;16.81;98957.00;5055993;28;972;-78
2023/02/14 05:29:30;;;;;;;;;;;;;;;22.09;17.62;98951.69;5062976;28;1895;-78
2023/02/14 05:31:55;;;;;;;;;;;;;;;21.46;18.31;98948.44;5078999;28;1623;-79
2023/02/14 05:34:21;;;;;;;;;;;;;;;22.31;17.47;98941.69;5092000;28;1298;-78
2023/02/14 05:36:46;;;;;;;;;;;;;;;22.59;16.81;98951.00;5092951;28;1528;-78
2023/02/14 05:39:13;;;;;;;;;;;;;;;23.43;16.08;98957.69;5075469;28;910;-78
2023/02/14 05:41:39;;;;;;;;;;;;;;;23.23;16.34;98961.28;5075843;28;919;-79
2023/02/14 05:44:04;;;;;;;;;;;;;;;22.59;17.24;98962.34;5075138;28;1914;-79
2023/02/14 05:46:29;;;;;;;;;;;;;;;21.66;18.18;98957.91;5075919;28;926;-79
2023/02/14 05:48:55;;;;;;;;;;;;;;;22.14;17.64;98954.09;5075517;28;1532;-79
2023/02/14 05:51:20;;;;;;;;;;;;;;;22.26;17.28;98962.00;5075498;28;991;-79
2023/02/14 05:53:46;;;;;;;;;;;;;;;22.90;16.68;98962.28;5075433;28;909;-79
2023/02/14 05:56:11;;;;;;;;;;;;;;;22.21;17.39;98956.00;5075621;28;887;-78
2023/02/14 05:58:37;;;;;;;;;;;;;;;22.07;17.58;98948.47;5078844;28;953;-78
2023/02/14 06:01:02;;;;;;;;;;;;;;;22.21;17.22;98947.50;5079183;28;1055;-79
2023/02/14 06:03:27;;;;;;;;;;;;;;;22.63;16.74;98940.38;5078849;28;1914;-78
2023/02/14 06:05:53;;;;;;;;;;;;;;;21.87;17.86;98939.84;5078830;28;1103;-78
2023/02/14 06:08:18;;;;;;;;;;;;;;;22.75;17.24;98942.63;5067175;28;1677;-78
2023/02/14 06:10:44;;;;;;;;;;;;;;;22.87;16.98;98944.06;5058952;28;1179;-78
2023/02/14 06:13:10;;;;;;;;;;;;;;;22.16;17.67;98951.63;5057730;28;924;-78
2023/02/14 06:15:35;;;;;;;;;;;;;;;22.69;16.86;98941.53;5056777;28;933;-79
2023/02/14 06:18:01;;;;;;;;;;;;;;;22.05;17.72;98934.72;5059074;28;966;-78
2023/02/14 06:20:26;;;;;;;;;;;;;;;22.61;17.26;98931.50;5057672;28;889;-79
2023/02/14 06:22:52;;;;;;;;;;;;;;;22.84;16.95;98933.56;5068389;28;1973;-78
2023/02/14 06:25:17;;;;;;;;;;;;;;;22.67;17.22;98940.34;5068676;28;1853;-79
2023/02/14 06:27:43;;;;;;;;;;;;;;;22.65;17.03;98948.47;5059174;28;940;-78
2023/02/14 06:30:09;;;;;;;;;;;;;;;21.76;17.94;98944.81;5056301;28;1315;-78
2023/02/14 06:32:34;;;;;;;;;;;;;;;22.30;17.34;98951.41;5058791;28;1867;-79
2023/02/14 06:35:00;;;;;;;;;;;;;;;22.44;17.25;98955.28;5071417;28;1579;-78
2023/02/14 06:37:25;;;;;;;;;;;;;;;23.16;16.50;98944.41;5079249;28;806;-79
2023/02/14 06:39:51;;;;;;;;;;;;;;;22.74;16.85;98946.72;5077681;28;1513;-79
2023/02/14 06:42:16;;;;;;;;;;;;;;;23.08;16.64;98954.28;5078319;28;1902;-79
2023/02/14 06:44:41;;;;;;;;;;;;;;;22.78;17.13;98947.44;5078286;28;946;-78
2023/02/14 06:47:07;;;;;;;;;;;;;;;22.84;16.95;98939.22;5078358;28;951;-78
2023/02/14 06:49:33;;;;;;;;;;;;;;;22.69;17.05;98947.19;5110683;28;848;-78
2023/02/14 06:51:58;;;;;;;;;;;;;;;22.51;17.23;98950.31;5077908;28;1572;-78
2023/02/14 06:54:24;;;;;;;;;;;;;;;23.24;16.85;98951.53;5110636;28;873;-78
2023/02/14 06:56:49;;;;;;;;;;;;;;;23.02;16.88;98950.31;5077971;28;952;-78
2023/02/14 06:59:15;;;;;;;;;;;;;;;22.81;17.23;98952.25;5078256;28;900;-79
2023/02/14 07:01:40;;;;;;;;;;;;;;;23.03;16.89;98958.41;5078480;28;926;-78
2023/02/14 07:04:05;;;;;;;;;;;;;;;23.05;16.87;98955.13;5096881;28;1936;-78
2023/02/14 07:06:31;;;;;;;;;;;;;;;23.00;16.86;98952.78;5057971;28;1389;-79
2023/02/14 07:08:56;;;;;;;;;;;;;;;22.69;17.04;98952.88;5057160;28;1014;-78
2023/02/14 07:11:22;;;;;;;;;;;;;;;22.65;17.16;98943.59;5058467;28;895;-78
2023/02/14 07:13:47;;;;;;;;;;;;;;;22.65;17.42;98943.59;5058118;28;1666;-79
2023/02/14 07:16:13;;;;;;;;;;;;;;;22.87;16.72;98944.84;5058166;28;1006;-79
2023/02/14 07:18:38;;;;;;;;;;;;;;;22.75;17.46;98951.16;5057608;28;929;-78
2023/02/14 07:21:04;;;;;;;;;;;;;;;23.16;16.77;98938.72;5057681;28;910;-79
2023/02/14 07:23:29;;;;;;;;;;;;;;;22.71;17.38;98944.72;5057560;28;1922;-78
2023/02/14 07:25:55;;;;;;;;;;;;;;;22.32;17.50;98954.63;5057811;28;895;-78
2023/02/14 07:28:20;;;;;;;;;;;;;;;22.71;17.35;98947.56;5060006;28;1823;-78
2023/02/14 07:30:46;;;;;;;;;;;;;;;23.16;16.77;98938.72;5077274;28;1888;-79
2023/02/14 07:33:11;;;;;;;;;;;;;;;23.01;17.04;98937.38;5077460;28;1158;-79
2023/02/14 07:35:37;;;;;;;;;;;;;;;22.96;17.11;98940.72;5077730;28;974;-79
2023/02/14 07:38:02;;;;;;;;;;;;;;;22.86;17.09;98931.91;5077546;28;916;-79
2023/02/14 07:40:28;;;;;;;;;;;;;;;22.32;17.58;98943.28;5077393;28;909;-78
2023/02/14 07:42:54;;;;;;;;;;;;;;;22.69;17.51;98935.84;5094200;28;2288;-78
2023/02/14 07:45:20;;;;;;;;;;;;;;;23.06;16.95;98928.38;5095367;28;1247;-78
2023/02/14 07:47:49;;;;;;;;;;;;;;;23.04;17.20;98933.66;5095090;28;954;-78
2023/02/14 07:50:14;;;;;;;;;;;;;;;22.72;17.40;98937.00;5095169;28;922;-78
2023/02/14 07:52:40;;;;;;;;;;;;;;;23.02;16.93;98927.63;5095197;28;1047;-78
2023/02/14 07:55:06;;;;;;;;;;;;;;;22.70;17.23;98928.94;5094856;28;912;-79
2023/02/14 07:57:31;;;;;;;;;;;;;;;22.83;17.03;98918.56;5094760;28;997;-79
2023/02/14 07:59:57;;;;;;;;;;;;;;;22.91;17.10;98921.34;5075187;28;1744;-78
2023/02/14 08:02:22;;;;;;;;;;;;;;;22.83;17.28;98918.56;5074635;28;1909;-78
2023/02/14 08:04:48;;;;;;;;;;;;;;;22.40;17.49;98931.84;5074487;28;1001;-78
2023/02/14 08:07:13;;;;;;;;;;;;;;;22.19;17.69;98925.25;5074535;28;1488;-78
2023/02/14 08:09:39;;;;;;;;;;;;;;;22.71;17.39;98924.88;5074125;28;951;-79
2023/02/14 08:14:50;;;;;;;;;;;;;;;22.92;17.36;98920.91;5058831;28;1019;-79
2023/02/14 08:17:15;;;;;;;;;;;;;;;22.57;17.47;98925.09;5056788;28;1049;-78
2023/02/14 08:19:40;;;;;;;;;;;;;;;23.04;17.27;98925.13;5055997;28;844;-78
2023/02/14 08:22:06;;;;;;;;;;;;;;;22.74;17.46;98921.19;5056435;28;1898;-79
2023/02/14 08:24:31;;;;;;;;;;;;;;;23.23;16.90;98915.06;5056886;28;916;-78
2023/02/14 08:26:57;;;;;;;;;;;;;;;23.34;16.83;98910.78;5056982;28;956;-78
2023/02/14 08:29:22;;;;;;;;;;;;;;;22.62;17.58;98911.22;5074563;28;1682;-78
2023/02/14 08:31:48;;;;;;;;;;;;;;;22.85;17.53;98907.59;5076318;28;844;-78
2023/02/14 08:34:14;;;;;;;;;;;;;;;22.74;17.56;98907.00;5076343;28;965;-78
2023/02/14 08:36:39;;;;;;;;;;;;;;;22.68;17.50;98908.69;5076579;28;904;-78
2023/02/14 08:39:05;;;;;;;;;;;;;;;22.85;17.29;98913.28;5076538;28;915;-78
2023/02/14 08:41:31;;;;;;;;;;;;;;;22.97;17.38;98908.25;5076264;28;917;-78
2023/02/14 08:43:56;;;;;;;;;;;;;;;22.45;17.62;98917.19;5058486;28;1992;-79
2023/02/14 08:46:22;;;;;;;;;;;;;;;22.74;17.70;98918.34;5055874;28;948;-78
2023/02/14 08:48:48;;;;;;;;;;;;;;;22.83;17.46;98910.06;5056259;28;1355;-79
2023/02/14 08:51:14;;;;;;;;;;;;;;;22.88;17.34;98909.59;5056279;28;1001;-79
2023/02/14 08:53:39;;;;;;;;;;;;;;;22.76;17.44;98913.03;5061508;28;1946;-78
2023/02/14 08:56:06;;;;;;;;;;;;;;;22.54;17.83;98903.28;5076744;28;945;-78
2023/02/14 08:58:31;;;;;;;;;;;;;;;22.22;18.26;98906.59;5076135;28;908;-79
2023/02/14 09:00:57;;;;;;;;;;;;;;;23.05;17.36;98909.72;5076351;28;1101;-78
2023/02/14 09:03:23;;;;;;;;;;;;;;;22.67;17.49;98901.41;5108723;28;1984;-78
2023/02/14 09:05:48;;;;;;;;;;;;;;;23.32;16.80;98901.09;5076025;28;1130;-79
2023/02/14 09:08:13;;;;;;;;;;;;;;;23.21;17.37;98889.97;5071706;28;2113;-78
2023/02/14 09:10:39;;;;;;;;;;;;;;;23.31;16.89;98885.28;5055578;28;1622;-79
2023/02/14 09:13:04;;;;;;;;;;;;;;;23.03;17.09;98892.31;5056201;28;1035;-79
2023/02/14 09:15:30;;;;;;;;;;;;;;;23.04;16.97;98886.19;5055545;28;1325;-79
2023/02/14 09:17:55;;;;;;;;;;;;;;;22.99;17.35;98883.84;5055865;28;905;-79
2023/02/14 09:20:21;;;;;;;;;;;;;;;22.66;17.67;98888.47;5055659;28;1092;-78
2023/02/14 09:22:46;;;;;;;;;;;;;;;22.54;17.93;98887.06;5055556;28;1983;-79
2023/02/14 09:25:11;;;;;;;;;;;;;;;22.33;17.83;98882.53;5056036;28;900;-78
2023/02/14 09:27:37;;;;;;;;;;;;;;;22.81;17.43;98881.31;5055746;28;889;-79
2023/02/14 09:30:04;;;;;;;;;;;;;;;22.99;17.23;98871.72;5055352;28;920;-78
2023/02/14 09:32:30;;;;;;;;;;;;;;;22.98;17.38;98876.59;5091583;28;1000;-78
2023/02/14 09:34:55;;;;;;;;;;;;;;;23.30;16.96;98881.66;5059770;28;962;-78
2023/02/14 09:40:05;;;;;;;;;;;;;;;23.09;17.15;98882.06;5059509;28;921;-78
2023/02/14 09:42:36;;;;;;;;;;;;;;;23.30;16.92;98880.84;5059514;28;1993;-79
2023/02/14 09:45:15;;;;;;;;;;;;;;;22.68;17.59;98877.47;5059640;28;916;-78
2023/02/14 09:47:43;;;;;;;;;;;;;;;22.65;17.58;98875.53;5059603;28;967;-78
2023/02/14 09:50:15;;;;;;;;;;;;;;;22.62;17.65;98877.19;5058562;28;953;-78
2023/02/14 09:52:40;;;;;;;;;;;;;;;22.73;17.49;98874.16;5057993;28;1657;-79
2023/02/14 09:55:08;;;;;;;;;;;;;;;22.45;17.67;98868.97;5059258;28;950;-78
2023/02/14 09:57:34;;;;;;;;;;;;;;;22.44;18.14;98873.06;5091825;28;1046;-79
2023/02/14 10:00:10;;;;;;;;;;;;;;;22.14;18.21;98877.56;5059103;28;886;-78
2023/02/14 10:02:38;;;;;;;;;;;;;;;22.77;17.53;98866.38;5093362;28;1988;-79
2023/02/14 10:05:06;;;;;;;;;;;;;;;22.15;18.08;98864.19;5078962;28;960;-78
2023/02/14 10:07:34;;;;;;;;;;;;;;;22.39;17.78;98867.88;5112005;28;1208;-79
2023/02/14 10:10:09;;;;;;;;;;;;;;;22.88;17.50;98866.22;5110763;28;1505;-78
2023/02/14 10:12:49;;;;;;;;;;;;;;;22.70;17.63;98866.53;5093577;28;1026;-79
2023/02/14 10:15:25;;;;;;;;;;;;;;;22.21;18.00;98860.44;5076578;28;952;-78
2023/02/14 10:17:52;;;;;;;;;;;;;;;23.33;17.25;98858.06;5110917;28;1461;-79
2023/02/14 10:20:19;;;;;;;;;;;;;;;22.56;17.77;98856.22;5097048;28;1212;-79
2023/02/14 10:22:47;;;;;;;;;;;;;;;23.12;17.40;98858.50;5080018;28;1905;-78
2023/02/14 10:25:18;;;;;;;;;;;;;;;22.87;17.66;98839.06;5079284;28;2002;-79
2023/02/14 10:27:44;;;;;;;;;;;;;;;23.06;17.14;98852.53;5096826;28;960;-79
2023/02/14 10:30:15;;;;;;;;;;;;;;;23.12;17.02;98847.94;5096844;28;958;-79
2023/02/14 10:32:46;;;;;;;;;;;;;;;23.42;16.87;98856.69;5113535;28;1201;-79
2023/02/14 10:35:31;;;;;;;;;;;;;;;23.13;17.23;98848.72;5096368;28;1163;-78
2023/02/14 10:38:04;;;;;;;;;;;;;;;22.87;17.37;98842.69;5055739;28;1135;-78
2023/02/14 10:40:35;;;;;;;;;;;;;;;22.84;17.46;98840.72;5032610;28;1960;-79
2023/02/14 10:43:16;;;;;;;;;;;;;;;23.26;17.18;98841.19;5048266;28;2055;-78
2023/02/14 10:46:01;;;;;;;;;;;;;;;22.55;17.91;98837.59;5056224;28;982;-79
2023/02/14 10:48:44;;;;;;;;;;;;;;;22.75;17.74;98822.69;5055943;28;1020;-78
2023/02/14 10:51:29;;;;;;;;;;;;;;;22.87;17.63;98831.34;5055727;28;1931;-78
2023/02/14 10:54:12;;;;;;;;;;;;;;;21.97;18.29;98831.22;5039293;28;987;-79
2023/02/14 10:56:39;;;;;;;;;;;;;;;22.65;17.63;98835.00;5055836;28;976;-79
2023/02/14 10:59:15;;;;;;;;;;;;;;;22.67;17.55;98844.69;5055844;28;929;-79
2023/02/14 11:01:40;;;;;;;;;;;;;;;22.66;17.74;98842.28;5055866;28;975;-78
2023/02/14 11:04:07;;;;;;;;;;;;;;;22.62;17.54;98836.66;5055908;28;1914;-79
2023/02/14 11:06:33;;;;;;;;;;;;;;;22.72;17.61;98824.31;5054606;28;1841;-78
2023/02/14 11:08:58;;;;;;;;;;;;;;;22.85;17.29;98816.00;5029560;28;1784;-79
2023/02/14 11:11:30;;;;;;;;;;;;;;;23.05;17.03;98824.56;5036098;28;974;-79
2023/02/14 11:13:56;;;;;;;;;;;;;;;22.51;17.55;98824.72;5003363;28;1134;-79
2023/02/14 11:16:29;;;;;;;;;;;;;;;22.77;17.43;98814.53;5056618;28;923;-79
2023/02/14 11:19:07;;;;;;;;;;;;;;;22.35;18.04;98816.88;5055737;28;953;-78
2023/02/14 11:21:36;;;;;;;;;;;;;;;23.04;17.24;98818.06;5055757;28;957;-79
2023/02/14 11:24:02;;;;;;;;;;;;;;;23.03;17.12;98804.31;5038349;28;1918;-79
2023/02/14 11:26:31;;;;;;;;;;;;;;;22.96;17.30;98813.78;5038631;28;1610;-79
2023/02/14 11:28:58;;;;;;;;;;;;;;;22.80;17.50;98808.00;5038872;28;949;-78
2023/02/14 11:31:27;;;;;;;;;;;;;;;22.66;17.55;98797.69;5038485;28;937;-79
2023/02/14 11:33:53;;;;;;;;;;;;;;;22.86;17.38;98809.09;5038513;28;1119;-79
2023/02/14 11:36:18;;;;;;;;;;;;;;;22.84;17.19;98809.50;5038533;28;951;-78
2023/02/14 11:38:44;;;;;;;;;;;;;;;22.90;17.32;98806.19;5060987;28;1594;-79
2023/02/14 11:41:10;;;;;;;;;;;;;;;22.79;17.52;98812.03;5075672;28;1039;-78
2023/02/14 11:43:37;;;;;;;;;;;;;;;22.29;18.02;98796.72;5057984;28;1906;-79
2023/02/14 11:46:03;;;;;;;;;;;;;;;22.86;17.21;98804.22;5058564;28;988;-79
2023/02/14 11:48:29;;;;;;;;;;;;;;;23.05;17.27;98804.69;5074627;28;913;-79
2023/02/14 11:51:01;;;;;;;;;;;;;;;22.80;17.30;98803.13;5073492;28;1390;-78
2023/02/14 11:53:28;;;;;;;;;;;;;;;22.60;17.89;98803.06;5076868;28;919;-78
2023/02/14 11:55:55;;;;;;;;;;;;;;;22.54;17.49;98795.50;5108726;28;975;-79
2023/02/14 11:58:27;;;;;;;;;;;;;;;22.75;17.68;98800.78;5110015;28;955;-78
2023/02/14 12:00:52;;;;;;;;;;;;;;;22.24;18.17;98790.75;5109814;28;917;-78
2023/02/14 12:03:18;;;;;;;;;;;;;;;22.91;17.50;98790.78;5075670;28;1910;-79
2023/02/14 12:05:44;;;;;;;;;;;;;;;22.09;18.02;98785.28;5071874;28;1785;-79
2023/02/14 12:08:09;;;;;;;;;;;;;;;22.65;17.78;98789.63;5055937;28;890;-78
2023/02/14 12:10:35;;;;;;;;;;;;;;;22.68;17.57;98788.75;5060037;28;1804;-79
2023/02/14 12:13:07;;;;;;;;;;;;;;;22.58;17.84;98779.19;5055423;28;960;-79
2023/02/14 12:15:34;;;;;;;;;;;;;;;22.84;17.39;98775.44;5056523;28;908;-79
2023/02/14 12:18:02;;;;;;;;;;;;;;;22.86;17.21;98766.53;5057069;28;923;-79
2023/02/14 12:20:35;;;;;;;;;;;;;;;22.98;17.75;98767.94;5056409;28;875;-79
2023/02/14 12:23:01;;;;;;;;;;;;;;;23.07;17.17;98771.00;5055528;28;1980;-79
2023/02/14 12:25:31;;;;;;;;;;;;;;;22.61;17.71;98767.00;5061954;28;1646;-78
2023/02/14 12:28:00;;;;;;;;;;;;;;;22.89;17.60;98765.66;5109171;28;1002;-78
2023/02/14 12:30:27;;;;;;;;;;;;;;;22.99;17.50;98772.38;5108898;28;957;-78
2023/02/14 12:32:55;;;;;;;;;;;;;;;22.39;18.15;98760.91;5108879;28;893;-79
2023/02/14 12:35:39;;;;;;;;;;;;;;;22.40;17.88;98770.22;5087604;28;1246;-79
2023/02/14 12:38:31;;;;;;;;;;;;;;;22.35;17.88;98760.97;5064958;28;1675;-79
2023/02/14 12:41:02;;;;;;;;;;;;;;;22.53;18.05;98759.84;5034375;28;948;-79
2023/02/14 12:43:33;;;;;;;;;;;;;;;22.68;17.85;98755.50;5033856;28;1989;-79
2023/02/14 12:46:02;;;;;;;;;;;;;;;22.34;18.17;98747.25;5034322;28;912;-79
2023/02/14 12:48:31;;;;;;;;;;;;;;;22.50;17.82;98749.38;5033837;28;1133;-79
2023/02/14 12:50:59;;;;;;;;;;;;;;;22.72;17.44;98739.22;5033756;28;1023;-78
2023/02/14 12:53:25;;;;;;;;;;;;;;;22.61;17.59;98741.47;5040351;28;1708;-79
2023/02/14 12:55:50;;;;;;;;;;;;;;;22.49;17.63;98742.91;5054349;28;975;-80
2023/02/14 12:58:28;;;;;;;;;;;;;;;22.80;17.41;98737.06;5036716;28;946;-79
2023/02/14 13:01:08;;;;;;;;;;;;;;;23.18;17.09;98731.03;5053969;28;1016;-79
2023/02/14 13:03:37;;;;;;;;;;;;;;;23.23;17.01;98734.16;5037074;28;1983;-79
2023/02/14 13:06:02;;;;;;;;;;;;;;;23.17;17.18;98741.59;5013661;28;1002;-79
2023/02/14 13:08:40;;;;;;;;;;;;;;;22.83;17.51;98742.63;5005230;28;1711;-79
2023/02/14 13:11:05;;;;;;;;;;;;;;;22.70;17.56;98736.03;5010523;28;1035;-79
2023/02/14 13:13:46;;;;;;;;;;;;;;;22.62;17.56;98743.06;4994414;28;1030;-79
2023/02/14 13:16:11;;;;;;;;;;;;;;;22.97;17.26;98735.13;4994221;28;1182;-78
2023/02/14 13:19:09;;;;;;;;;;;;;;;22.99;17.52;98744.00;5028071;28;1064;-79
2023/02/14 13:21:34;;;;;;;;;;;;;;;22.97;17.46;98732.28;5013767;28;1045;-79
2023/02/14 13:24:09;;;;;;;;;;;;;;;23.12;17.46;98734.38;4985583;28;1914;-79
2023/02/14 13:26:35;;;;;;;;;;;;;;;22.63;17.71;98730.47;4978277;28;964;-78